Nyk Orpheus — 7JDN — position and weather

sailwx.info

Track history (hours):
 
Tides and Currents Weather Stations Pressure Air Temp Water Temp Dewpoint Dewpoint Depression Visibility Wind Speed Wind Dir Waves Ship Positions

Nyk Orpheus

Last reported at 2016-Jun-30 12:19 UTC. Time now 2016-Jul-01 13:39 UTC.
Position N 34°40' E 139°30'.

Length 336 m; draft 9.7 m.

Type: Other ship. MMSI: 432657000.

Date/timePositionNaut miles runAvg speedWind from/ knotsBaromVisibWave heightAir tempDewpointWater temp
2016-Jun-30 12:19N 34°40' E 139°30'1317.0
2016-Jun-30 11:33N 34°51' E 139°36'1716.8
2016-Jun-30 10:33N 35°07' E 139°44'1211.8
2016-Jun-30 09:33N 35°18' E 139°44'1212.2
2016-Jun-30 08:33N 35°29' E 139°50'7 7.4
2016-Jun-30 07:33N 35°36' E 139°46'0 0.0
2016-Jun-30 06:31N 35°36' E 139°46'0 0.0
2016-Jun-30 05:31N 35°36' E 139°46'0 0.0
2016-Jun-30 04:28N 35°36' E 139°46'0 0.0
2016-Jun-30 03:31N 35°36' E 139°46'0 0.0
2016-Jun-30 02:22N 35°36' E 139°46'0 0.0
2016-Jun-30 01:28N 35°36' E 139°46'0 0.0
2016-Jun-30 00:31N 35°36' E 139°46'0 0.0
2016-Jun-29 23:31N 35°36' E 139°46'0 0.0
2016-Jun-29 22:31N 35°36' E 139°46'0 0.0
2016-Jun-29 21:25N 35°36' E 139°46'0 0.0
2016-Jun-29 20:31N 35°36' E 139°46'0 0.0
2016-Jun-29 19:31N 35°36' E 139°46'0 0.0
2016-Jun-29 18:31N 35°36' E 139°46'0 0.0
2016-Jun-29 17:31N 35°36' E 139°46'0 0.0
2016-Jun-29 16:31N 35°36' E 139°46'0 0.0
2016-Jun-29 15:31N 35°36' E 139°46'0 0.0
2016-Jun-29 14:31N 35°36' E 139°46'0 0.0
2016-Jun-29 13:28N 35°36' E 139°46'0 0.0
2016-Jun-29 12:31N 35°36' E 139°46'0 0.0
2016-Jun-29 11:31N 35°36' E 139°46'0 0.0
2016-Jun-29 10:31N 35°36' E 139°46'0 0.0
2016-Jun-29 09:28N 35°36' E 139°46'0 0.0
2016-Jun-29 08:31N 35°36' E 139°46'0 0.0
2016-Jun-29 07:31N 35°36' E 139°46'0 0.0
2016-Jun-29 06:31N 35°36' E 139°46'0 0.0
2016-Jun-29 04:31N 35°36' E 139°46'0 0.0
2016-Jun-29 03:31N 35°36' E 139°46'0 0.0
2016-Jun-29 02:31N 35°36' E 139°46'0 0.0
2016-Jun-29 01:31N 35°36' E 139°46'0 0.0
2016-Jun-29 00:31N 35°36' E 139°46'0 0.0
2016-Jun-28 23:31N 35°36' E 139°46'0 0.5
2016-Jun-28 22:34N 35°36' E 139°47'8 7.9
2016-Jun-28 21:34N 35°29' E 139°51'1212.3
2016-Jun-28 20:33N 35°17' E 139°45'1010.3
2016-Jun-28 19:33N 35°07' E 139°46'7 6.6
2016-Jun-28 18:33N 35°01' E 139°42'1212.2
2016-Jun-28 17:33N 34°49' E 139°39'57 7.7
2016-Jun-28 10:08N 35°02' E 138°31'0 0.1
2016-Jun-28 09:33N 35°02' E 138°31'0 0.0
2016-Jun-28 08:32N 35°02' E 138°31'0 0.0
2016-Jun-28 07:11N 35°02' E 138°31'0 0.0
2016-Jun-28 06:29N 35°02' E 138°31'0 0.0
2016-Jun-28 01:14N 35°02' E 138°31'0 0.0
2016-Jun-28 00:32N 35°02' E 138°31'0 0.0
2016-Jun-27 23:32N 35°02' E 138°31'0 0.0
2016-Jun-27 22:20N 35°02' E 138°31'185 3.6
2016-Jun-25 19:33N 34°12' E 134°55'1514.9
2016-Jun-25 18:34N 34°25' E 135°04'1717.4
2016-Jun-25 17:34N 34°38' E 135°17'3 2.9
2016-Jun-25 16:34N 34°41' E 135°17'0 0.0
2016-Jun-25 15:29N 34°41' E 135°17'0 0.0
2016-Jun-25 14:29N 34°41' E 135°17'0 0.0
2016-Jun-25 13:29N 34°41' E 135°17'0 0.0
2016-Jun-25 12:29N 34°41' E 135°17'0 0.0
2016-Jun-25 11:29N 34°41' E 135°17'0 0.1
2016-Jun-25 10:29N 34°41' E 135°17'0 0.0
2016-Jun-25 09:29N 34°41' E 135°17'0 0.0
2016-Jun-25 08:29N 34°41' E 135°17'0 0.0
2016-Jun-25 07:23N 34°41' E 135°17'0 0.0
2016-Jun-25 06:29N 34°41' E 135°17'0 0.0
2016-Jun-25 04:29N 34°41' E 135°17'0 0.0
2016-Jun-25 03:29N 34°41' E 135°17'0 0.0
2016-Jun-25 02:29N 34°41' E 135°17'0 0.0
2016-Jun-25 01:29N 34°41' E 135°17'0 0.0
2016-Jun-25 00:29N 34°41' E 135°17'0 0.0
2016-Jun-24 23:23N 34°41' E 135°17'0 0.0
2016-Jun-24 22:33N 34°41' E 135°17'8 8.2
2016-Jun-24 21:33N 34°33' E 135°15'1817.6
2016-Jun-24 20:33N 34°20' E 135°00'1212.1
2016-Jun-24 19:33N 34°08' E 134°59'10 9.5
2016-Jun-24 18:33N 33°58' E 134°58'  
2016-Jun-21 20:33N 23°49' E 118°33'1817.8
2016-Jun-21 19:33N 23°39' E 118°16'1817.7
2016-Jun-21 18:32N 23°30' E 117°59'22516.1
2016-Jun-21 04:33N 22°20' E 114°07'0 0.2
2016-Jun-21 03:28N 22°20' E 114°08'0 0.0
2016-Jun-21 02:31N 22°20' E 114°08'0 0.0
2016-Jun-21 01:28N 22°20' E 114°08'0 0.0
2016-Jun-21 00:31N 22°20' E 114°08'0 0.0
2016-Jun-20 23:28N 22°20' E 114°08'0 0.0
2016-Jun-20 22:28N 22°20' E 114°08'0 0.0
2016-Jun-20 21:28N 22°20' E 114°08'0 0.0
2016-Jun-20 19:25N 22°20' E 114°08'0 0.0
2016-Jun-20 18:22N 22°20' E 114°08'0 0.0
2016-Jun-20 17:31N 22°20' E 114°08'0 0.0
2016-Jun-20 16:22N 22°20' E 114°08'0 0.0
2016-Jun-20 15:22N 22°20' E 114°08'0 0.0
2016-Jun-20 14:31N 22°20' E 114°08'0 0.0
2016-Jun-20 13:25N 22°20' E 114°08'0 0.0
2016-Jun-20 12:31N 22°20' E 114°08'  
Track history (hours):
 
Tides and Currents Weather Stations Pressure Air Temp Water Temp Dewpoint Dewpoint Depression Visibility Wind Speed Wind Dir Waves Ship Positions

Nyk Orpheus

Last reported at 2016-Jun-30 12:19 UTC. Time now 2016-Jul-01 13:39 UTC.
Position N 34°40' E 139°30'.

Length 336 m; draft 9.7 m.

Type: Other ship. MMSI: 432657000.

Date/timePositionNaut miles runAvg speedWind from/ knotsBaromVisibWave heightAir tempDewpointWater temp
2016-Jun-30 12:19N 34°40' E 139°30'1317.0
2016-Jun-30 11:33N 34°51' E 139°36'1716.8
2016-Jun-30 10:33N 35°07' E 139°44'1211.8
2016-Jun-30 09:33N 35°18' E 139°44'1212.2
2016-Jun-30 08:33N 35°29' E 139°50'7 7.4
2016-Jun-30 07:33N 35°36' E 139°46'0 0.0
2016-Jun-30 06:31N 35°36' E 139°46'0 0.0
2016-Jun-30 05:31N 35°36' E 139°46'0 0.0
2016-Jun-30 04:28N 35°36' E 139°46'0 0.0
2016-Jun-30 03:31N 35°36' E 139°46'0 0.0
2016-Jun-30 02:22N 35°36' E 139°46'0 0.0
2016-Jun-30 01:28N 35°36' E 139°46'0 0.0
2016-Jun-30 00:31N 35°36' E 139°46'0 0.0
2016-Jun-29 23:31N 35°36' E 139°46'0 0.0
2016-Jun-29 22:31N 35°36' E 139°46'0 0.0
2016-Jun-29 21:25N 35°36' E 139°46'0 0.0
2016-Jun-29 20:31N 35°36' E 139°46'0 0.0
2016-Jun-29 19:31N 35°36' E 139°46'0 0.0
2016-Jun-29 18:31N 35°36' E 139°46'0 0.0
2016-Jun-29 17:31N 35°36' E 139°46'0 0.0
2016-Jun-29 16:31N 35°36' E 139°46'0 0.0
2016-Jun-29 15:31N 35°36' E 139°46'0 0.0
2016-Jun-29 14:31N 35°36' E 139°46'0 0.0
2016-Jun-29 13:28N 35°36' E 139°46'0 0.0
2016-Jun-29 12:31N 35°36' E 139°46'0 0.0
2016-Jun-29 11:31N 35°36' E 139°46'0 0.0
2016-Jun-29 10:31N 35°36' E 139°46'0 0.0
2016-Jun-29 09:28N 35°36' E 139°46'0 0.0
2016-Jun-29 08:31N 35°36' E 139°46'0 0.0
2016-Jun-29 07:31N 35°36' E 139°46'0 0.0
2016-Jun-29 06:31N 35°36' E 139°46'0 0.0
2016-Jun-29 04:31N 35°36' E 139°46'0 0.0
2016-Jun-29 03:31N 35°36' E 139°46'0 0.0
2016-Jun-29 02:31N 35°36' E 139°46'0 0.0
2016-Jun-29 01:31N 35°36' E 139°46'0 0.0
2016-Jun-29 00:31N 35°36' E 139°46'0 0.0
2016-Jun-28 23:31N 35°36' E 139°46'0 0.5
2016-Jun-28 22:34N 35°36' E 139°47'8 7.9
2016-Jun-28 21:34N 35°29' E 139°51'1212.3
2016-Jun-28 20:33N 35°17' E 139°45'1010.3
2016-Jun-28 19:33N 35°07' E 139°46'7 6.6
2016-Jun-28 18:33N 35°01' E 139°42'1212.2
2016-Jun-28 17:33N 34°49' E 139°39'57 7.7
2016-Jun-28 10:08N 35°02' E 138°31'0 0.1
2016-Jun-28 09:33N 35°02' E 138°31'0 0.0
2016-Jun-28 08:32N 35°02' E 138°31'0 0.0
2016-Jun-28 07:11N 35°02' E 138°31'0 0.0
2016-Jun-28 06:29N 35°02' E 138°31'0 0.0
2016-Jun-28 01:14N 35°02' E 138°31'0 0.0
2016-Jun-28 00:32N 35°02' E 138°31'0 0.0
2016-Jun-27 23:32N 35°02' E 138°31'0 0.0
2016-Jun-27 22:20N 35°02' E 138°31'185 3.6
2016-Jun-25 19:33N 34°12' E 134°55'1514.9
2016-Jun-25 18:34N 34°25' E 135°04'1717.4
2016-Jun-25 17:34N 34°38' E 135°17'3 2.9
2016-Jun-25 16:34N 34°41' E 135°17'0 0.0
2016-Jun-25 15:29N 34°41' E 135°17'0 0.0
2016-Jun-25 14:29N 34°41' E 135°17'0 0.0
2016-Jun-25 13:29N 34°41' E 135°17'0 0.0
2016-Jun-25 12:29N 34°41' E 135°17'0 0.0
2016-Jun-25 11:29N 34°41' E 135°17'0 0.1
2016-Jun-25 10:29N 34°41' E 135°17'0 0.0
2016-Jun-25 09:29N 34°41' E 135°17'0 0.0
2016-Jun-25 08:29N 34°41' E 135°17'0 0.0
2016-Jun-25 07:23N 34°41' E 135°17'0 0.0
2016-Jun-25 06:29N 34°41' E 135°17'0 0.0
2016-Jun-25 04:29N 34°41' E 135°17'0 0.0
2016-Jun-25 03:29N 34°41' E 135°17'0 0.0
2016-Jun-25 02:29N 34°41' E 135°17'0 0.0
2016-Jun-25 01:29N 34°41' E 135°17'0 0.0
2016-Jun-25 00:29N 34°41' E 135°17'0 0.0
2016-Jun-24 23:23N 34°41' E 135°17'0 0.0
2016-Jun-24 22:33N 34°41' E 135°17'8 8.2
2016-Jun-24 21:33N 34°33' E 135°15'1817.6
2016-Jun-24 20:33N 34°20' E 135°00'1212.1
2016-Jun-24 19:33N 34°08' E 134°59'10 9.5
2016-Jun-24 18:33N 33°58' E 134°58'  
2016-Jun-21 20:33N 23°49' E 118°33'1817.8
2016-Jun-21 19:33N 23°39' E 118°16'1817.7
2016-Jun-21 18:32N 23°30' E 117°59'22516.1
2016-Jun-21 04:33N 22°20' E 114°07'0 0.2
2016-Jun-21 03:28N 22°20' E 114°08'0 0.0
2016-Jun-21 02:31N 22°20' E 114°08'0 0.0
2016-Jun-21 01:28N 22°20' E 114°08'0 0.0
2016-Jun-21 00:31N 22°20' E 114°08'0 0.0
2016-Jun-20 23:28N 22°20' E 114°08'0 0.0
2016-Jun-20 22:28N 22°20' E 114°08'0 0.0
2016-Jun-20 21:28N 22°20' E 114°08'0 0.0
2016-Jun-20 19:25N 22°20' E 114°08'0 0.0
2016-Jun-20 18:22N 22°20' E 114°08'0 0.0
2016-Jun-20 17:31N 22°20' E 114°08'0 0.0
2016-Jun-20 16:22N 22°20' E 114°08'0 0.0
2016-Jun-20 15:22N 22°20' E 114°08'0 0.0
2016-Jun-20 14:31N 22°20' E 114°08'0 0.0
2016-Jun-20 13:25N 22°20' E 114°08'0 0.0
2016-Jun-20 12:31N 22°20' E 114°08'  

Dump ship's entire track history